createdAt,value
2023-02-06T00:00:32.200Z,4.38
2023-02-06T00:02:58.844Z,4.88
2023-02-06T00:05:25.473Z,4.65
2023-02-06T00:07:52.032Z,4.72
2023-02-06T00:10:18.792Z,4.63
2023-02-06T00:12:46.733Z,4.53
2023-02-06T00:15:13.343Z,5.00
2023-02-06T00:17:39.954Z,4.82
2023-02-06T00:20:08.454Z,4.47
2023-02-06T00:22:35.391Z,4.40
2023-02-06T00:25:02.629Z,4.20
2023-02-06T00:27:29.272Z,4.97
2023-02-06T00:29:57.237Z,5.10
2023-02-06T00:32:23.915Z,3.92
2023-02-06T00:34:50.616Z,4.07
2023-02-06T00:37:17.364Z,4.25
2023-02-06T00:39:44.006Z,4.53
2023-02-06T00:42:10.632Z,4.45
2023-02-06T00:44:37.303Z,5.15
2023-02-06T00:47:05.427Z,5.10
2023-02-06T00:49:32.048Z,5.40
2023-02-06T00:51:58.681Z,5.07
2023-02-06T00:54:25.283Z,4.70
2023-02-06T00:56:52.058Z,5.38
2023-02-06T00:59:18.628Z,5.15
2023-02-06T01:01:45.378Z,5.32
2023-02-06T01:04:13.494Z,4.93
2023-02-06T01:06:40.150Z,4.82
2023-02-06T01:09:06.948Z,5.15
2023-02-06T01:11:35.486Z,5.55
2023-02-06T01:14:02.201Z,5.30
2023-02-06T01:16:29.000Z,4.70
2023-02-06T01:18:55.914Z,5.55
2023-02-06T01:21:24.857Z,5.55
2023-02-06T01:23:53.894Z,4.90
2023-02-06T01:26:22.925Z,6.32
2023-02-06T01:28:49.915Z,5.47
2023-02-06T01:31:20.467Z,5.20
2023-02-06T01:33:50.312Z,5.38
2023-02-06T01:36:18.289Z,5.32
2023-02-06T01:38:47.450Z,4.72
2023-02-06T01:41:14.676Z,5.53
2023-02-06T01:43:43.139Z,5.65
2023-02-06T01:46:10.649Z,5.85
2023-02-06T01:48:41.096Z,4.70
2023-02-06T01:51:16.853Z,5.50
2023-02-06T01:53:47.605Z,4.93
2023-02-06T01:56:16.644Z,4.88
2023-02-06T01:58:46.167Z,5.28
2023-02-06T02:01:12.864Z,5.43
2023-02-06T02:03:42.298Z,4.95
2023-02-06T02:06:11.906Z,5.32
2023-02-06T02:08:40.449Z,4.90
2023-02-06T02:11:10.885Z,5.43
2023-02-06T02:13:38.711Z,5.95
2023-02-06T02:16:14.897Z,6.03
2023-02-06T02:18:57.080Z,5.80
2023-02-06T02:22:01.048Z,6.00
2023-02-06T02:27:39.090Z,5.93
2023-02-06T02:30:33.503Z,6.47
2023-02-06T02:33:33.475Z,5.97
2023-02-06T02:36:09.799Z,6.35
2023-02-06T02:38:47.080Z,6.35
2023-02-06T02:41:19.443Z,7.53
2023-02-06T02:43:54.140Z,6.73
2023-02-06T02:46:26.275Z,6.40
2023-02-06T02:48:56.670Z,6.53
2023-02-06T02:51:24.910Z,7.13
2023-02-06T02:53:51.688Z,6.85
2023-02-06T02:56:20.665Z,6.70
2023-02-06T02:58:52.213Z,6.88
2023-02-06T03:01:23.344Z,6.28
2023-02-06T03:03:53.313Z,6.55
2023-02-06T03:06:48.117Z,7.65
2023-02-06T03:09:26.610Z,6.13
2023-02-06T03:12:02.369Z,7.25
2023-02-06T03:14:34.273Z,7.15
2023-02-06T03:17:06.562Z,6.72
2023-02-06T03:19:36.915Z,6.50
2023-02-06T03:22:05.279Z,7.53
2023-02-06T03:24:36.170Z,7.13
2023-02-06T03:27:06.632Z,6.15
2023-02-06T03:29:35.289Z,6.68
2023-02-06T03:32:05.822Z,6.25
2023-02-06T03:34:38.346Z,6.32
2023-02-06T03:37:06.768Z,6.38
2023-02-06T03:39:33.870Z,6.20
2023-02-06T03:42:02.263Z,6.88
2023-02-06T03:44:34.006Z,6.22
2023-02-06T03:47:03.455Z,6.32
2023-02-06T03:49:32.587Z,6.05
2023-02-06T03:52:03.264Z,6.85
2023-02-06T03:54:32.843Z,6.20
2023-02-06T03:57:02.488Z,6.57
2023-02-06T03:59:31.489Z,6.03
2023-02-06T04:02:00.984Z,6.10
2023-02-06T04:04:30.405Z,5.85
2023-02-06T04:06:58.804Z,6.68
2023-02-06T04:09:25.530Z,6.07
2023-02-06T04:11:53.589Z,5.88
2023-02-06T04:14:20.244Z,5.30
2023-02-06T04:16:46.981Z,6.53
2023-02-06T04:19:13.955Z,5.68
2023-02-06T04:21:40.615Z,5.85
2023-02-06T04:24:07.703Z,5.80
2023-02-06T04:26:34.426Z,5.97
2023-02-06T04:29:02.649Z,6.30
2023-02-06T04:31:29.298Z,5.78
2023-02-06T04:33:55.933Z,6.28
2023-02-06T04:36:22.520Z,6.20
2023-02-06T04:38:49.212Z,6.80
2023-02-06T04:41:15.810Z,6.15
2023-02-06T04:43:42.419Z,6.63
2023-02-06T04:46:10.580Z,6.28
2023-02-06T04:48:38.578Z,6.40
2023-02-06T04:51:05.550Z,6.20
2023-02-06T04:53:32.197Z,6.00
2023-02-06T04:56:02.151Z,5.75
2023-02-06T04:58:28.737Z,6.25
2023-02-06T05:00:55.459Z,5.53
2023-02-06T05:03:23.481Z,6.30
2023-02-06T05:05:50.073Z,5.63
2023-02-06T05:08:17.119Z,5.82
2023-02-06T05:10:43.779Z,6.25
2023-02-06T05:13:10.466Z,6.30
2023-02-06T05:15:37.483Z,6.15
2023-02-06T05:18:04.968Z,6.82
2023-02-06T05:20:32.978Z,6.65
2023-02-06T05:22:59.596Z,6.57
2023-02-06T05:25:26.347Z,6.72
2023-02-06T05:27:53.097Z,6.28
2023-02-06T05:30:19.980Z,6.65
2023-02-06T05:32:46.941Z,6.22
2023-02-06T05:35:13.540Z,6.75
2023-02-06T05:37:41.539Z,6.97
2023-02-06T05:40:09.730Z,6.50
2023-02-06T05:42:36.517Z,7.22
2023-02-06T05:45:03.751Z,7.03
2023-02-06T05:47:30.377Z,6.70
2023-02-06T05:49:57.013Z,5.72
2023-02-06T05:52:23.560Z,5.95
2023-02-06T05:54:51.608Z,6.35
2023-02-06T05:57:18.324Z,5.57
2023-02-06T05:59:44.997Z,5.72
2023-02-06T06:02:11.567Z,6.53
2023-02-06T06:04:38.307Z,6.40
2023-02-06T06:07:05.251Z,6.47
2023-02-06T06:09:31.938Z,7.05
2023-02-06T06:11:59.908Z,5.70
2023-02-06T06:14:26.739Z,6.50
2023-02-06T06:16:53.345Z,6.93
2023-02-06T06:19:20.253Z,6.07
2023-02-06T06:21:47.051Z,5.72
2023-02-06T06:24:13.724Z,6.18
2023-02-06T06:26:40.313Z,6.40
2023-02-06T06:29:08.402Z,6.88
2023-02-06T06:31:35.026Z,6.93
2023-02-06T06:34:01.798Z,8.00
2023-02-06T06:36:28.458Z,8.00
2023-02-06T06:38:55.139Z,6.82
2023-02-06T06:41:21.978Z,6.45
2023-02-06T06:43:51.232Z,5.50
2023-02-06T06:46:19.516Z,5.97
2023-02-06T06:48:46.106Z,6.75
2023-02-06T06:51:12.747Z,5.80
2023-02-06T06:53:39.363Z,6.60
2023-02-06T06:56:07.555Z,6.05
2023-02-06T06:58:34.392Z,6.68
2023-02-06T07:01:01.089Z,6.13
2023-02-06T07:03:29.204Z,6.53
2023-02-06T07:05:55.846Z,6.53
2023-02-06T07:08:22.518Z,6.00
2023-02-06T07:10:49.159Z,6.22
2023-02-06T07:13:15.764Z,5.70
2023-02-06T07:15:42.595Z,6.00
2023-02-06T07:18:11.639Z,6.18
2023-02-06T07:20:40.049Z,6.40
2023-02-06T07:23:06.719Z,6.00
2023-02-06T07:25:33.586Z,6.05
2023-02-06T07:28:00.432Z,6.05
2023-02-06T07:30:27.145Z,6.45
2023-02-06T07:32:53.757Z,6.53
2023-02-06T07:35:20.382Z,5.47
2023-02-06T07:37:48.553Z,6.28
2023-02-06T07:40:15.192Z,7.45
2023-02-06T07:42:41.772Z,6.53
2023-02-06T07:45:09.294Z,6.03
2023-02-06T07:47:35.980Z,6.53
2023-02-06T07:50:02.645Z,6.85
2023-02-06T07:52:29.318Z,6.95
2023-02-06T07:54:57.338Z,6.40
2023-02-06T07:57:24.078Z,8.07
2023-02-06T07:59:50.779Z,6.85
2023-02-06T08:02:17.354Z,7.85
2023-02-06T08:04:44.538Z,7.90
2023-02-06T08:07:11.243Z,7.80
2023-02-06T08:09:37.883Z,7.53
2023-02-06T08:12:06.478Z,8.00
2023-02-06T08:14:33.101Z,8.32
2023-02-06T08:17:00.047Z,7.53
2023-02-06T08:19:26.847Z,8.57
2023-02-06T08:21:53.457Z,8.50
2023-02-06T08:24:20.455Z,8.27
2023-02-06T08:26:47.154Z,7.90
2023-02-06T08:29:15.126Z,8.35
2023-02-06T08:31:42.769Z,8.18
2023-02-06T08:34:13.210Z,7.60
2023-02-06T08:36:41.759Z,8.18
2023-02-06T08:39:12.866Z,8.57
2023-02-06T08:41:41.166Z,10.02
2023-02-06T08:44:10.523Z,9.90
2023-02-06T08:46:39.698Z,11.25
2023-02-06T08:49:11.158Z,11.43
2023-02-06T08:51:37.795Z,11.77
2023-02-06T08:54:07.013Z,11.20
2023-02-06T08:56:35.002Z,11.02
2023-02-06T08:59:02.089Z,10.85
2023-02-06T09:01:30.964Z,12.23
2023-02-06T09:04:01.028Z,14.18
2023-02-06T09:06:28.618Z,15.90
2023-02-06T09:08:56.525Z,13.90
2023-02-06T09:11:24.759Z,13.60
2023-02-06T09:13:53.883Z,13.10
2023-02-06T09:16:21.484Z,12.35
2023-02-06T09:18:48.808Z,12.50
2023-02-06T09:21:19.196Z,12.20
2023-02-06T09:23:47.727Z,11.77
2023-02-06T09:26:16.500Z,13.85
2023-02-06T09:28:43.406Z,16.42
2023-02-06T09:31:10.926Z,16.85
2023-02-06T09:33:39.097Z,18.73
2023-02-06T09:36:08.357Z,16.02
2023-02-06T09:38:38.860Z,14.63
2023-02-06T09:41:15.291Z,15.07
2023-02-06T09:43:48.812Z,14.68
2023-02-06T09:46:19.214Z,14.73
2023-02-06T09:48:45.863Z,12.43
2023-02-06T09:51:18.488Z,14.75
2023-02-06T09:53:56.369Z,15.45
2023-02-06T09:56:32.664Z,15.30
2023-02-06T09:59:10.819Z,14.25
2023-02-06T10:01:44.068Z,12.35
2023-02-06T10:04:33.284Z,12.25
2023-02-06T10:07:11.360Z,13.57
2023-02-06T10:09:43.916Z,11.82
2023-02-06T10:12:16.271Z,11.67
2023-02-06T10:14:48.668Z,12.13
2023-02-06T10:17:20.885Z,12.32
2023-02-06T10:19:53.986Z,12.20
2023-02-06T10:22:27.803Z,12.70
2023-02-06T10:25:14.114Z,15.25
2023-02-06T10:27:43.436Z,12.48
2023-02-06T10:30:15.770Z,13.77
2023-02-06T10:32:48.743Z,13.05
2023-02-06T10:35:39.068Z,11.23
2023-02-06T10:38:46.138Z,12.80
2023-02-06T10:41:24.017Z,13.02
2023-02-06T10:43:57.138Z,14.00
2023-02-06T10:46:39.865Z,13.90
2023-02-06T10:49:16.859Z,13.70
2023-02-06T10:51:46.201Z,12.88
2023-02-06T10:54:18.311Z,11.75
2023-02-06T10:56:47.719Z,12.90
2023-02-06T10:59:21.896Z,12.27
2023-02-06T11:01:51.706Z,12.05
2023-02-06T11:04:24.514Z,11.00
2023-02-06T11:06:57.739Z,11.57
2023-02-06T11:09:24.413Z,10.57
2023-02-06T11:11:53.321Z,12.10
2023-02-06T11:14:25.146Z,10.45
2023-02-06T11:16:52.679Z,11.48
2023-02-06T11:19:26.148Z,11.10
2023-02-06T11:24:24.630Z,9.48
2023-02-06T11:26:55.697Z,10.05
2023-02-06T11:29:26.694Z,9.77
2023-02-06T11:31:56.253Z,8.88
2023-02-06T11:34:27.888Z,9.85
2023-02-06T11:36:57.470Z,10.07
2023-02-06T11:39:27.994Z,9.55
2023-02-06T11:42:01.800Z,8.00
2023-02-06T11:44:34.888Z,9.10
2023-02-06T11:47:19.910Z,9.52
2023-02-06T11:49:46.961Z,9.20
2023-02-06T11:52:28.573Z,9.52
2023-02-06T11:54:55.631Z,10.45
2023-02-06T11:57:24.618Z,9.20
2023-02-06T11:59:53.268Z,10.02
2023-02-06T12:02:26.864Z,8.82
2023-02-06T12:05:01.775Z,9.38
2023-02-06T12:07:31.041Z,9.60
2023-02-06T12:09:57.741Z,9.45
2023-02-06T12:12:30.911Z,8.82
2023-02-06T12:15:10.269Z,10.70
2023-02-06T12:17:51.354Z,10.20
2023-02-06T12:20:22.816Z,8.90
2023-02-06T12:22:54.061Z,9.60
2023-02-06T12:25:31.520Z,9.90
2023-02-06T12:28:06.880Z,11.10
2023-02-06T12:30:39.057Z,10.15
2023-02-06T12:33:12.443Z,10.35
2023-02-06T12:35:43.952Z,11.05
2023-02-06T12:38:20.152Z,10.82
2023-02-06T12:40:58.109Z,10.63
2023-02-06T12:43:27.977Z,11.35
2023-02-06T12:45:59.539Z,12.10
2023-02-06T12:48:34.888Z,11.52
2023-02-06T12:51:08.597Z,11.60
2023-02-06T12:53:38.862Z,11.43
2023-02-06T12:56:13.167Z,10.45
2023-02-06T12:58:54.046Z,11.73
2023-02-06T13:01:34.492Z,11.85
2023-02-06T13:04:05.362Z,11.65
2023-02-06T13:06:42.863Z,11.05
2023-02-06T13:09:20.323Z,11.10
2023-02-06T13:11:47.471Z,12.10
2023-02-06T13:14:20.530Z,12.52
2023-02-06T13:16:55.028Z,11.90
2023-02-06T13:19:49.583Z,11.68
2023-02-06T13:22:38.767Z,10.75
2023-02-06T13:25:51.361Z,12.13
2023-02-06T13:28:41.178Z,11.95
2023-02-06T13:31:21.742Z,11.75
2023-02-06T13:33:52.281Z,12.82
2023-02-06T13:36:27.495Z,12.85
2023-02-06T13:38:55.529Z,12.95
2023-02-06T13:41:30.981Z,13.95
2023-02-06T13:44:00.618Z,12.65
2023-02-06T13:46:51.679Z,14.40
2023-02-06T13:49:56.247Z,13.40
2023-02-06T13:52:29.062Z,13.52
2023-02-06T13:55:11.552Z,14.52
2023-02-06T13:57:54.189Z,14.15
2023-02-06T14:00:23.806Z,10.18
2023-02-06T14:02:55.623Z,14.48
2023-02-06T14:05:28.261Z,13.38
2023-02-06T14:08:08.217Z,12.98
2023-02-06T14:11:13.521Z,12.40
2023-02-06T14:14:01.170Z,12.82
2023-02-06T14:16:39.669Z,12.70
2023-02-06T14:19:18.512Z,12.63
2023-02-06T14:21:52.978Z,12.20
2023-02-06T14:24:39.287Z,12.82
2023-02-06T14:27:22.027Z,12.55
2023-02-06T14:29:55.127Z,13.43
2023-02-06T14:32:33.137Z,12.90
2023-02-06T14:35:15.650Z,14.10
2023-02-06T14:38:13.249Z,12.95
2023-02-06T14:40:42.076Z,12.85
2023-02-06T14:43:18.104Z,12.23
2023-02-06T14:46:05.651Z,13.30
2023-02-06T14:48:38.902Z,12.00
2023-02-06T14:51:15.297Z,12.75
2023-02-06T14:53:51.588Z,12.35
2023-02-06T14:56:25.442Z,12.68
2023-02-06T14:58:52.099Z,11.88
2023-02-06T15:01:24.430Z,12.45
2023-02-06T15:03:51.840Z,10.98
2023-02-06T15:06:32.039Z,13.15
2023-02-06T15:08:59.640Z,13.30
2023-02-06T15:11:28.292Z,13.07
2023-02-06T15:13:56.417Z,11.57
2023-02-06T15:16:23.056Z,11.55
2023-02-06T15:18:49.943Z,12.73
2023-02-06T15:21:18.600Z,13.48
2023-02-06T15:23:59.684Z,11.95
2023-02-06T15:26:33.618Z,12.07
2023-02-06T15:29:02.247Z,12.65
2023-02-06T15:31:29.886Z,12.75
2023-02-06T15:33:59.749Z,11.70
2023-02-06T15:36:31.041Z,13.15
2023-02-06T15:39:00.373Z,13.43
2023-02-06T15:41:29.859Z,13.00
2023-02-06T15:44:00.761Z,13.05
2023-02-06T15:46:29.068Z,27.63
2023-02-06T15:48:56.382Z,14.68
2023-02-06T15:51:25.695Z,16.48
2023-02-06T15:54:05.413Z,14.02
2023-02-06T15:56:35.974Z,43.97
2023-02-06T15:59:05.127Z,23.70
2023-02-06T16:01:36.237Z,15.50
2023-02-06T16:04:08.118Z,13.98
2023-02-06T16:06:35.153Z,14.05
2023-02-06T16:09:03.782Z,14.60
2023-02-06T16:11:34.283Z,14.02
2023-02-06T16:14:01.030Z,14.60
2023-02-06T16:16:27.950Z,14.05
2023-02-06T16:18:56.608Z,16.45
2023-02-06T16:21:27.460Z,14.07
2023-02-06T16:24:05.420Z,16.88
2023-02-06T16:26:42.456Z,13.65
2023-02-06T16:29:20.724Z,12.82
2023-02-06T16:31:56.744Z,13.57
2023-02-06T16:34:32.372Z,11.65
2023-02-06T16:36:59.017Z,11.90
2023-02-06T16:39:25.672Z,11.05
2023-02-06T16:41:53.869Z,11.65
2023-02-06T16:44:20.720Z,12.40
2023-02-06T16:46:47.354Z,12.35
2023-02-06T16:49:18.658Z,12.10
2023-02-06T16:51:46.951Z,12.20
2023-02-06T16:54:18.464Z,12.52
2023-02-06T16:56:45.690Z,13.18
2023-02-06T16:59:13.714Z,11.45
2023-02-06T17:01:40.433Z,11.90
2023-02-06T17:04:07.133Z,12.85
2023-02-06T17:06:35.622Z,11.73
2023-02-06T17:09:05.940Z,10.65
2023-02-06T17:11:33.368Z,10.95
2023-02-06T17:14:00.132Z,11.85
2023-02-06T17:16:29.166Z,12.80
2023-02-06T17:18:56.080Z,12.63
2023-02-06T17:21:24.397Z,12.98
2023-02-06T17:23:51.486Z,12.27
2023-02-06T17:26:20.926Z,13.82
2023-02-06T17:28:48.652Z,12.85
2023-02-06T17:31:15.541Z,13.65
2023-02-06T17:33:43.847Z,14.13
2023-02-06T17:36:15.307Z,13.55
2023-02-06T17:38:41.967Z,21.75
2023-02-06T17:41:08.731Z,13.85
2023-02-06T17:43:35.577Z,13.10
2023-02-06T17:46:02.284Z,13.80
2023-02-06T17:48:29.021Z,13.23
2023-02-06T17:50:57.109Z,14.32
2023-02-06T17:53:23.819Z,15.00
2023-02-06T17:55:50.825Z,15.13
2023-02-06T17:58:17.719Z,14.38
2023-02-06T18:00:47.353Z,14.93
2023-02-06T18:03:14.110Z,16.73
2023-02-06T18:05:40.819Z,16.10
2023-02-06T18:08:09.002Z,16.27
2023-02-06T18:10:35.934Z,15.30
2023-02-06T18:13:03.008Z,16.23
2023-02-06T18:15:31.799Z,17.77
2023-02-06T18:17:58.768Z,17.48
2023-02-06T18:20:25.457Z,14.98
2023-02-06T18:22:52.142Z,19.65
2023-02-06T18:25:20.382Z,21.80
2023-02-06T18:27:47.283Z,20.88
2023-02-06T18:30:15.136Z,20.48
2023-02-06T18:32:41.800Z,19.90
2023-02-06T18:35:09.992Z,18.50
2023-02-06T18:37:36.868Z,20.98
2023-02-06T18:40:04.177Z,18.50
2023-02-06T18:42:32.267Z,18.83
2023-02-06T18:44:58.907Z,19.73
2023-02-06T18:47:25.673Z,20.17
2023-02-06T18:49:52.309Z,20.55
2023-02-06T18:52:19.010Z,19.75
2023-02-06T18:54:45.891Z,19.80
2023-02-06T18:57:12.617Z,18.35
2023-02-06T18:59:40.976Z,18.77
2023-02-06T19:02:10.150Z,18.77
2023-02-06T19:04:36.966Z,21.92
2023-02-06T19:07:03.788Z,18.38
2023-02-06T19:09:30.535Z,21.13
2023-02-06T19:11:57.308Z,21.98
2023-02-06T19:14:23.966Z,22.33
2023-02-06T19:16:53.209Z,22.83
2023-02-06T19:19:19.988Z,22.58
2023-02-06T19:21:46.695Z,20.75
2023-02-06T19:24:15.705Z,21.35
2023-02-06T19:26:42.697Z,23.48
2023-02-06T19:29:11.192Z,22.33
2023-02-06T19:31:38.131Z,23.30
2023-02-06T19:34:07.257Z,24.40
2023-02-06T19:36:34.883Z,24.90
2023-02-06T19:39:07.429Z,22.83
2023-02-06T19:41:34.593Z,18.67
2023-02-06T19:44:03.220Z,24.73
2023-02-06T19:46:29.939Z,24.17
2023-02-06T19:48:56.851Z,26.17
2023-02-06T19:51:26.813Z,23.67
2023-02-06T19:53:54.756Z,25.17
2023-02-06T19:56:23.619Z,25.02
2023-02-06T19:58:53.953Z,23.60
2023-02-06T20:01:20.815Z,25.38
2023-02-06T20:03:47.641Z,24.77
2023-02-06T20:06:15.167Z,23.65
2023-02-06T20:08:45.073Z,25.38
2023-02-06T20:11:13.916Z,25.85
2023-02-06T20:13:41.506Z,24.63
2023-02-06T20:16:14.589Z,32.47
2023-02-06T20:18:41.357Z,34.88
2023-02-06T20:21:19.290Z,32.85
2023-02-06T20:23:48.280Z,35.33
2023-02-06T20:26:15.302Z,32.20
2023-02-06T20:28:42.099Z,35.08
2023-02-06T20:31:09.759Z,31.73
2023-02-06T20:33:36.501Z,31.30
2023-02-06T20:36:05.471Z,29.90
2023-02-06T20:38:32.232Z,28.73
2023-02-06T20:41:00.479Z,27.40
2023-02-06T20:43:27.381Z,28.05
2023-02-06T20:45:54.237Z,27.23
2023-02-06T20:48:20.963Z,27.25
2023-02-06T20:50:47.767Z,23.17
2023-02-06T20:53:14.510Z,25.15
2023-02-06T20:55:41.955Z,25.45
2023-02-06T20:58:10.560Z,24.63
2023-02-06T21:00:37.503Z,24.10
2023-02-06T21:03:04.619Z,24.15
2023-02-06T21:05:31.300Z,23.80
2023-02-06T21:07:58.005Z,24.85
2023-02-06T21:10:25.577Z,25.50
2023-02-06T21:12:52.179Z,25.50
2023-02-06T21:15:20.354Z,25.67
2023-02-06T21:17:46.908Z,25.40
2023-02-06T21:20:13.563Z,26.50
2023-02-06T21:22:40.263Z,26.05
2023-02-06T21:25:07.107Z,27.98
2023-02-06T21:27:34.194Z,25.40
2023-02-06T21:30:00.937Z,25.50
2023-02-06T21:32:28.929Z,24.23
2023-02-06T21:34:55.562Z,23.10
2023-02-06T21:37:22.173Z,26.55
2023-02-06T21:39:48.924Z,22.83
2023-02-06T21:42:15.547Z,25.00
2023-02-06T21:44:42.209Z,25.30
2023-02-06T21:47:08.927Z,26.42
2023-02-06T21:49:37.281Z,28.63
2023-02-06T21:52:04.176Z,26.85
2023-02-06T21:54:30.867Z,27.42
2023-02-06T21:56:57.463Z,22.98
2023-02-06T21:59:24.117Z,23.23
2023-02-06T22:01:50.784Z,24.83
2023-02-06T22:04:17.440Z,24.15
2023-02-06T22:06:45.803Z,25.25
2023-02-06T22:09:16.144Z,23.55
2023-02-06T22:11:42.872Z,25.02
2023-02-06T22:14:13.217Z,24.67
2023-02-06T22:16:40.359Z,25.35
2023-02-06T22:19:07.812Z,24.38
2023-02-06T22:21:34.915Z,25.90
2023-02-06T22:24:05.548Z,25.05
2023-02-06T22:26:34.064Z,24.98
2023-02-06T22:29:00.989Z,25.73
2023-02-06T22:31:31.449Z,26.20
2023-02-06T22:33:59.641Z,25.08
2023-02-06T22:36:30.490Z,25.35
2023-02-06T22:38:59.075Z,25.75
2023-02-06T22:41:28.262Z,22.30
2023-02-06T22:43:54.869Z,20.35
2023-02-06T22:46:23.993Z,20.00
2023-02-06T22:48:51.466Z,18.08
2023-02-06T22:51:19.294Z,18.35
2023-02-06T22:53:46.013Z,18.55
2023-02-06T22:56:15.323Z,16.15
2023-02-06T22:58:50.679Z,16.38
2023-02-06T23:01:18.888Z,15.52
2023-02-06T23:03:45.878Z,15.52
2023-02-06T23:06:14.522Z,15.35
2023-02-06T23:08:41.965Z,15.32
2023-02-06T23:11:09.686Z,15.45
2023-02-06T23:13:36.634Z,14.07
2023-02-06T23:16:04.947Z,15.40
2023-02-06T23:18:31.760Z,14.25
2023-02-06T23:21:00.763Z,15.02
2023-02-06T23:23:27.981Z,14.95
2023-02-06T23:25:55.138Z,15.45
2023-02-06T23:28:23.939Z,14.13
2023-02-06T23:30:50.953Z,16.83
2023-02-06T23:33:19.744Z,15.55
2023-02-06T23:35:46.780Z,17.30
2023-02-06T23:38:13.596Z,18.45
2023-02-06T23:40:40.400Z,15.60
2023-02-06T23:43:07.223Z,17.02
2023-02-06T23:45:34.299Z,16.90
2023-02-06T23:48:01.000Z,16.38
2023-02-06T23:50:29.375Z,17.50
2023-02-06T23:52:55.998Z,17.08
2023-02-06T23:55:22.617Z,17.15
2023-02-06T23:57:49.219Z,17.23
